sensor_id;sensor_type;location;lat;lon;timestamp;pressure;altitude;pressure_sealevel;temperature;humidity
6615;BME280;3343;42.896;23.912;2023-01-31T00:01:04;96070.59;;;4.24;90.75
6615;BME280;3343;42.896;23.912;2023-01-31T00:03:59;96063.91;;;4.29;89.94
6615;BME280;3343;42.896;23.912;2023-01-31T00:06:29;96070.75;;;4.22;90.30
6615;BME280;3343;42.896;23.912;2023-01-31T00:08:57;96060.56;;;4.45;89.29
6615;BME280;3343;42.896;23.912;2023-01-31T00:11:26;96050.47;;;4.66;88.17
6615;BME280;3343;42.896;23.912;2023-01-31T00:13:53;96051.13;;;4.68;87.68
6615;BME280;3343;42.896;23.912;2023-01-31T00:16:22;96042.00;;;4.72;87.07
6615;BME280;3343;42.896;23.912;2023-01-31T00:18:50;96029.47;;;4.60;87.67
6615;BME280;3343;42.896;23.912;2023-01-31T00:21:19;96016.09;;;4.38;89.04
6615;BME280;3343;42.896;23.912;2023-01-31T00:23:47;96036.78;;;4.40;88.79
6615;BME280;3343;42.896;23.912;2023-01-31T00:26:16;96026.44;;;4.06;90.17
6615;BME280;3343;42.896;23.912;2023-01-31T00:28:44;96014.34;;;3.46;93.30
6615;BME280;3343;42.896;23.912;2023-01-31T00:31:13;96009.78;;;3.40;93.91
6615;BME280;3343;42.896;23.912;2023-01-31T00:33:42;96016.06;;;3.64;93.80
6615;BME280;3343;42.896;23.912;2023-01-31T00:36:14;96002.84;;;4.07;91.67
6615;BME280;3343;42.896;23.912;2023-01-31T00:38:41;96001.09;;;4.32;89.66
6615;BME280;3343;42.896;23.912;2023-01-31T00:41:09;96015.28;;;4.70;88.51
6615;BME280;3343;42.896;23.912;2023-01-31T00:43:36;96002.25;;;4.54;88.33
6615;BME280;3343;42.896;23.912;2023-01-31T00:46:04;96010.41;;;4.67;88.20
6615;BME280;3343;42.896;23.912;2023-01-31T00:48:31;96004.16;;;4.11;90.90
6615;BME280;3343;42.896;23.912;2023-01-31T00:50:58;95999.91;;;3.94;91.57
6615;BME280;3343;42.896;23.912;2023-01-31T00:53:27;95997.81;;;4.22;90.63
6615;BME280;3343;42.896;23.912;2023-01-31T00:55:55;95995.88;;;4.24;90.49
6615;BME280;3343;42.896;23.912;2023-01-31T00:58:27;95986.06;;;3.94;91.36
6615;BME280;3343;42.896;23.912;2023-01-31T01:00:54;95984.59;;;3.83;92.73
6615;BME280;3343;42.896;23.912;2023-01-31T01:03:20;95974.59;;;3.62;92.61
6615;BME280;3343;42.896;23.912;2023-01-31T01:05:47;95978.22;;;3.69;92.91
6615;BME280;3343;42.896;23.912;2023-01-31T01:08:14;95977.66;;;4.32;90.04
6615;BME280;3343;42.896;23.912;2023-01-31T01:10:42;95973.44;;;4.72;88.68
6615;BME280;3343;42.896;23.912;2023-01-31T01:13:09;95967.38;;;4.79;87.39
6615;BME280;3343;42.896;23.912;2023-01-31T01:15:36;95954.03;;;4.74;87.98
6615;BME280;3343;42.896;23.912;2023-01-31T01:18:03;95956.50;;;4.35;88.90
6615;BME280;3343;42.896;23.912;2023-01-31T01:20:30;95958.97;;;4.45;89.10
6615;BME280;3343;42.896;23.912;2023-01-31T01:22:58;95967.06;;;4.66;88.50
6615;BME280;3343;42.896;23.912;2023-01-31T01:25:25;95958.75;;;4.79;87.28
6615;BME280;3343;42.896;23.912;2023-01-31T01:27:53;95969.66;;;4.91;87.02
6615;BME280;3343;42.896;23.912;2023-01-31T01:30:20;95969.78;;;4.97;87.03
6615;BME280;3343;42.896;23.912;2023-01-31T01:32:47;95968.88;;;4.74;87.54
6615;BME280;3343;42.896;23.912;2023-01-31T01:35:13;95973.28;;;4.49;88.66
6615;BME280;3343;42.896;23.912;2023-01-31T01:37:40;95971.44;;;4.01;90.78
6615;BME280;3343;42.896;23.912;2023-01-31T01:40:08;95972.28;;;4.18;91.17
6615;BME280;3343;42.896;23.912;2023-01-31T01:42:35;95971.94;;;4.21;90.28
6615;BME280;3343;42.896;23.912;2023-01-31T01:45:10;95980.78;;;4.36;90.41
6615;BME280;3343;42.896;23.912;2023-01-31T01:47:44;95985.81;;;4.62;89.62
6615;BME280;3343;42.896;23.912;2023-01-31T01:50:16;95974.69;;;5.00;87.28
6615;BME280;3343;42.896;23.912;2023-01-31T01:52:47;95978.56;;;5.12;86.39
6615;BME280;3343;42.896;23.912;2023-01-31T01:55:21;95963.91;;;5.03;86.67
6615;BME280;3343;42.896;23.912;2023-01-31T01:57:56;95973.72;;;4.85;87.05
6615;BME280;3343;42.896;23.912;2023-01-31T02:00:28;95971.44;;;4.82;87.49
6615;BME280;3343;42.896;23.912;2023-01-31T02:02:58;95955.19;;;4.64;87.60
6615;BME280;3343;42.896;23.912;2023-01-31T02:05:28;95960.13;;;5.14;85.94
6615;BME280;3343;42.896;23.912;2023-01-31T02:07:56;95955.22;;;5.19;84.59
6615;BME280;3343;42.896;23.912;2023-01-31T02:10:27;95961.41;;;5.34;84.08
6615;BME280;3343;42.896;23.912;2023-01-31T02:12:55;95959.47;;;5.28;83.11
6615;BME280;3343;42.896;23.912;2023-01-31T02:15:23;95952.78;;;5.26;83.83
6615;BME280;3343;42.896;23.912;2023-01-31T02:17:52;95958.50;;;5.21;84.72
6615;BME280;3343;42.896;23.912;2023-01-31T02:20:42;95971.50;;;5.37;83.64
6615;BME280;3343;42.896;23.912;2023-01-31T02:23:36;95969.91;;;5.20;84.14
6615;BME280;3343;42.896;23.912;2023-01-31T02:26:29;95985.59;;;5.04;84.50
6615;BME280;3343;42.896;23.912;2023-01-31T02:29:22;95981.41;;;4.78;85.74
6615;BME280;3343;42.896;23.912;2023-01-31T02:32:27;95985.47;;;4.81;85.46
6615;BME280;3343;42.896;23.912;2023-01-31T02:35:04;95994.28;;;4.39;87.15
6615;BME280;3343;42.896;23.912;2023-01-31T02:37:42;96014.63;;;4.60;85.65
6615;BME280;3343;42.896;23.912;2023-01-31T02:40:16;95997.34;;;4.27;86.83
6615;BME280;3343;42.896;23.912;2023-01-31T02:42:52;96020.13;;;4.25;87.48
6615;BME280;3343;42.896;23.912;2023-01-31T02:45:28;96018.16;;;3.52;90.35
6615;BME280;3343;42.896;23.912;2023-01-31T02:48:05;96016.06;;;3.56;91.04
6615;BME280;3343;42.896;23.912;2023-01-31T02:50:37;96032.19;;;3.67;90.83
6615;BME280;3343;42.896;23.912;2023-01-31T02:53:10;96031.75;;;3.12;92.92
6615;BME280;3343;42.896;23.912;2023-01-31T02:55:42;96037.72;;;3.64;91.01
6615;BME280;3343;42.896;23.912;2023-01-31T02:58:33;96057.00;;;3.96;89.30
6615;BME280;3343;42.896;23.912;2023-01-31T03:01:02;96059.03;;;4.18;88.12
6615;BME280;3343;42.896;23.912;2023-01-31T03:03:33;96063.44;;;4.26;87.78
6615;BME280;3343;42.896;23.912;2023-01-31T03:09:23;96074.50;;;4.28;87.83
6615;BME280;3343;42.896;23.912;2023-01-31T03:12:00;96074.41;;;3.95;88.85
6615;BME280;3343;42.896;23.912;2023-01-31T03:14:38;96084.66;;;3.55;91.81
6615;BME280;3343;42.896;23.912;2023-01-31T03:17:12;96099.66;;;4.03;90.33
6615;BME280;3343;42.896;23.912;2023-01-31T03:20:03;96096.97;;;3.78;91.41
6615;BME280;3343;42.896;23.912;2023-01-31T03:22:33;96083.75;;;3.72;91.18
6615;BME280;3343;42.896;23.912;2023-01-31T03:25:03;96092.09;;;3.83;91.03
6615;BME280;3343;42.896;23.912;2023-01-31T03:27:31;96102.78;;;4.14;89.47
6615;BME280;3343;42.896;23.912;2023-01-31T03:30:02;96110.91;;;4.11;89.21
6615;BME280;3343;42.896;23.912;2023-01-31T03:32:34;96117.63;;;3.80;90.95
6615;BME280;3343;42.896;23.912;2023-01-31T03:35:06;96095.56;;;3.32;93.48
6615;BME280;3343;42.896;23.912;2023-01-31T03:37:38;96095.09;;;3.63;92.64
6615;BME280;3343;42.896;23.912;2023-01-31T03:40:11;96090.84;;;3.96;90.55
6615;BME280;3343;42.896;23.912;2023-01-31T03:42:44;96090.06;;;4.03;90.24
6615;BME280;3343;42.896;23.912;2023-01-31T03:45:18;96087.84;;;4.25;88.72
6615;BME280;3343;42.896;23.912;2023-01-31T03:47:48;96097.72;;;4.05;89.69
6615;BME280;3343;42.896;23.912;2023-01-31T03:50:22;96094.03;;;4.32;88.08
6615;BME280;3343;42.896;23.912;2023-01-31T03:53:00;96086.03;;;4.17;88.17
6615;BME280;3343;42.896;23.912;2023-01-31T03:55:32;96089.38;;;3.93;90.08
6615;BME280;3343;42.896;23.912;2023-01-31T03:58:02;96095.91;;;3.97;89.92
6615;BME280;3343;42.896;23.912;2023-01-31T04:00:33;96105.28;;;4.32;88.24
6615;BME280;3343;42.896;23.912;2023-01-31T04:03:06;96095.09;;;4.47;87.46
6615;BME280;3343;42.896;23.912;2023-01-31T04:05:36;96092.16;;;4.58;86.80
6615;BME280;3343;42.896;23.912;2023-01-31T04:08:05;96105.09;;;4.26;87.68
6615;BME280;3343;42.896;23.912;2023-01-31T04:10:32;96098.56;;;4.22;88.16
6615;BME280;3343;42.896;23.912;2023-01-31T04:12:59;96110.41;;;4.08;88.49
6615;BME280;3343;42.896;23.912;2023-01-31T04:15:27;96090.16;;;3.86;88.62
6615;BME280;3343;42.896;23.912;2023-01-31T04:17:53;96113.91;;;3.82;89.06
6615;BME280;3343;42.896;23.912;2023-01-31T04:20:20;96103.56;;;3.65;89.88
6615;BME280;3343;42.896;23.912;2023-01-31T04:22:49;96105.47;;;3.55;91.31
6615;BME280;3343;42.896;23.912;2023-01-31T04:25:15;96115.09;;;3.62;90.27
6615;BME280;3343;42.896;23.912;2023-01-31T04:27:42;96115.53;;;3.83;89.60
6615;BME280;3343;42.896;23.912;2023-01-31T04:30:10;96117.63;;;4.22;88.36
6615;BME280;3343;42.896;23.912;2023-01-31T04:32:39;96125.13;;;4.33;87.41
6615;BME280;3343;42.896;23.912;2023-01-31T04:35:06;96121.53;;;4.26;87.42
6615;BME280;3343;42.896;23.912;2023-01-31T04:37:33;96124.06;;;4.02;88.15
6615;BME280;3343;42.896;23.912;2023-01-31T04:40:01;96128.84;;;3.80;89.22
6615;BME280;3343;42.896;23.912;2023-01-31T04:42:28;96113.97;;;3.39;91.28
6615;BME280;3343;42.896;23.912;2023-01-31T04:44:55;96126.63;;;3.60;91.05
6615;BME280;3343;42.896;23.912;2023-01-31T04:47:22;96131.00;;;3.85;89.51
6615;BME280;3343;42.896;23.912;2023-01-31T04:49:49;96126.50;;;4.03;88.88
6615;BME280;3343;42.896;23.912;2023-01-31T04:52:15;96118.13;;;3.83;89.58
6615;BME280;3343;42.896;23.912;2023-01-31T04:54:42;96115.44;;;3.67;90.16
6615;BME280;3343;42.896;23.912;2023-01-31T04:57:10;96117.97;;;4.27;88.21
6615;BME280;3343;42.896;23.912;2023-01-31T04:59:37;96117.28;;;4.17;87.68
6615;BME280;3343;42.896;23.912;2023-01-31T05:02:04;96117.09;;;4.10;87.56
6615;BME280;3343;42.896;23.912;2023-01-31T05:04:31;96120.53;;;4.19;87.38
6615;BME280;3343;42.896;23.912;2023-01-31T05:06:58;96116.00;;;4.29;87.14
6615;BME280;3343;42.896;23.912;2023-01-31T05:09:25;96135.47;;;4.09;87.70
6615;BME280;3343;42.896;23.912;2023-01-31T05:11:51;96127.06;;;4.23;86.33
6615;BME280;3343;42.896;23.912;2023-01-31T05:14:20;96138.13;;;4.17;86.98
6615;BME280;3343;42.896;23.912;2023-01-31T05:16:46;96137.25;;;3.23;90.30
6615;BME280;3343;42.896;23.912;2023-01-31T05:19:13;96136.72;;;2.93;92.66
6615;BME280;3343;42.896;23.912;2023-01-31T05:21:40;96135.34;;;2.36;96.13
6615;BME280;3343;42.896;23.912;2023-01-31T05:24:23;96128.50;;;2.62;95.37
6615;BME280;3343;42.896;23.912;2023-01-31T05:26:51;96142.91;;;3.18;92.41
6615;BME280;3343;42.896;23.912;2023-01-31T05:29:23;96143.53;;;3.56;90.79
6615;BME280;3343;42.896;23.912;2023-01-31T05:31:50;96147.97;;;3.63;90.10
6615;BME280;3343;42.896;23.912;2023-01-31T05:34:17;96154.81;;;3.46;90.20
6615;BME280;3343;42.896;23.912;2023-01-31T05:36:44;96152.34;;;3.19;91.93
6615;BME280;3343;42.896;23.912;2023-01-31T05:39:11;96154.00;;;3.46;90.40
6615;BME280;3343;42.896;23.912;2023-01-31T05:41:37;96158.34;;;3.37;90.58
6615;BME280;3343;42.896;23.912;2023-01-31T05:44:05;96158.66;;;3.16;91.71
6615;BME280;3343;42.896;23.912;2023-01-31T05:46:33;96160.97;;;3.63;89.94
6615;BME280;3343;42.896;23.912;2023-01-31T05:49:00;96170.06;;;3.59;89.48
6615;BME280;3343;42.896;23.912;2023-01-31T05:51:27;96152.56;;;3.26;90.81
6615;BME280;3343;42.896;23.912;2023-01-31T05:53:53;96155.72;;;3.11;91.87
6615;BME280;3343;42.896;23.912;2023-01-31T05:56:20;96150.41;;;3.65;89.93
6615;BME280;3343;42.896;23.912;2023-01-31T05:58:48;96150.88;;;3.60;89.96
6615;BME280;3343;42.896;23.912;2023-01-31T06:01:15;96169.66;;;4.06;88.08
6615;BME280;3343;42.896;23.912;2023-01-31T06:03:44;96162.22;;;4.19;87.55
6615;BME280;3343;42.896;23.912;2023-01-31T06:06:12;96169.38;;;4.17;87.64
6615;BME280;3343;42.896;23.912;2023-01-31T06:08:39;96165.09;;;4.08;87.54
6615;BME280;3343;42.896;23.912;2023-01-31T06:11:08;96152.13;;;3.82;88.37
6615;BME280;3343;42.896;23.912;2023-01-31T06:13:36;96167.78;;;3.90;87.90
6615;BME280;3343;42.896;23.912;2023-01-31T06:16:03;96163.19;;;4.18;86.71
6615;BME280;3343;42.896;23.912;2023-01-31T06:18:30;96148.69;;;3.30;90.72
6615;BME280;3343;42.896;23.912;2023-01-31T06:20:58;96166.63;;;3.59;90.53
6615;BME280;3343;42.896;23.912;2023-01-31T06:23:25;96163.47;;;3.47;89.52
6615;BME280;3343;42.896;23.912;2023-01-31T06:25:53;96165.88;;;3.23;91.52
6615;BME280;3343;42.896;23.912;2023-01-31T06:28:21;96167.25;;;3.53;90.27
6615;BME280;3343;42.896;23.912;2023-01-31T06:30:48;96164.03;;;2.97;92.06
6615;BME280;3343;42.896;23.912;2023-01-31T06:33:15;96169.72;;;3.18;92.14
6615;BME280;3343;42.896;23.912;2023-01-31T06:35:43;96168.56;;;2.95;91.93
6615;BME280;3343;42.896;23.912;2023-01-31T06:38:12;96163.13;;;3.24;91.75
6615;BME280;3343;42.896;23.912;2023-01-31T06:40:40;96164.63;;;2.91;92.45
6615;BME280;3343;42.896;23.912;2023-01-31T06:43:09;96169.41;;;3.91;89.70
6615;BME280;3343;42.896;23.912;2023-01-31T06:45:36;96166.44;;;4.20;87.84
6615;BME280;3343;42.896;23.912;2023-01-31T06:48:03;96158.56;;;4.38;87.23
6615;BME280;3343;42.896;23.912;2023-01-31T06:50:30;96169.50;;;4.50;86.89
6615;BME280;3343;42.896;23.912;2023-01-31T06:52:57;96168.56;;;4.16;86.29
6615;BME280;3343;42.896;23.912;2023-01-31T06:55:25;96178.91;;;4.34;85.58
6615;BME280;3343;42.896;23.912;2023-01-31T07:01:12;96176.44;;;3.99;87.12
6615;BME280;3343;42.896;23.912;2023-01-31T07:03:40;96168.09;;;4.21;86.22
6615;BME280;3343;42.896;23.912;2023-01-31T07:06:08;96174.63;;;4.33;86.64
6615;BME280;3343;42.896;23.912;2023-01-31T07:08:35;96174.34;;;5.35;84.61
6615;BME280;3343;42.896;23.912;2023-01-31T07:11:04;96176.06;;;6.16;78.39
6615;BME280;3343;42.896;23.912;2023-01-31T07:13:31;96176.97;;;6.62;76.71
6615;BME280;3343;42.896;23.912;2023-01-31T07:15:58;96168.91;;;7.26;71.70
6615;BME280;3343;42.896;23.912;2023-01-31T07:18:25;96175.91;;;6.49;74.43
6615;BME280;3343;42.896;23.912;2023-01-31T07:20:52;96174.50;;;6.38;76.20
6615;BME280;3343;42.896;23.912;2023-01-31T07:23:19;96177.28;;;6.36;75.74
6615;BME280;3343;42.896;23.912;2023-01-31T07:25:46;96180.41;;;6.32;76.14
6615;BME280;3343;42.896;23.912;2023-01-31T07:28:14;96185.47;;;6.25;77.18
6615;BME280;3343;42.896;23.912;2023-01-31T07:30:41;96177.38;;;5.88;79.53
6615;BME280;3343;42.896;23.912;2023-01-31T07:33:08;96178.81;;;6.23;78.28
6615;BME280;3343;42.896;23.912;2023-01-31T07:35:35;96175.53;;;6.21;76.58
6615;BME280;3343;42.896;23.912;2023-01-31T07:38:02;96173.47;;;5.84;79.36
6615;BME280;3343;42.896;23.912;2023-01-31T07:40:29;96176.66;;;6.26;79.34
6615;BME280;3343;42.896;23.912;2023-01-31T07:42:57;96186.22;;;6.42;77.57
6615;BME280;3343;42.896;23.912;2023-01-31T07:45:26;96161.41;;;6.38;76.04
6615;BME280;3343;42.896;23.912;2023-01-31T07:47:56;96187.78;;;6.59;76.49
6615;BME280;3343;42.896;23.912;2023-01-31T07:50:23;96187.81;;;6.82;75.67
6615;BME280;3343;42.896;23.912;2023-01-31T07:52:51;96182.34;;;6.38;76.64
6615;BME280;3343;42.896;23.912;2023-01-31T07:55:18;96181.44;;;6.06;78.96
6615;BME280;3343;42.896;23.912;2023-01-31T07:57:45;96180.50;;;6.47;78.53
6615;BME280;3343;42.896;23.912;2023-01-31T08:00:12;96184.75;;;6.79;76.56
6615;BME280;3343;42.896;23.912;2023-01-31T08:02:55;96176.16;;;7.76;74.42
6615;BME280;3343;42.896;23.912;2023-01-31T08:05:53;96185.72;;;8.36;69.19
6615;BME280;3343;42.896;23.912;2023-01-31T08:08:20;96185.44;;;8.97;66.01
6615;BME280;3343;42.896;23.912;2023-01-31T08:10:47;96187.03;;;9.12;62.89
6615;BME280;3343;42.896;23.912;2023-01-31T08:13:14;96187.06;;;8.98;63.76
6615;BME280;3343;42.896;23.912;2023-01-31T08:15:41;96192.31;;;8.98;64.10
6615;BME280;3343;42.896;23.912;2023-01-31T08:18:09;96186.97;;;9.27;62.29
6615;BME280;3343;42.896;23.912;2023-01-31T08:20:35;96178.53;;;8.74;63.84
6615;BME280;3343;42.896;23.912;2023-01-31T08:23:03;96197.28;;;8.56;63.52
6615;BME280;3343;42.896;23.912;2023-01-31T08:25:30;96202.13;;;8.15;64.43
6615;BME280;3343;42.896;23.912;2023-01-31T08:27:57;96192.75;;;8.06;67.54
6615;BME280;3343;42.896;23.912;2023-01-31T08:30:24;96192.84;;;8.13;65.43
6615;BME280;3343;42.896;23.912;2023-01-31T08:32:51;96193.91;;;7.89;66.51
6615;BME280;3343;42.896;23.912;2023-01-31T08:35:19;96189.41;;;8.12;67.13
6615;BME280;3343;42.896;23.912;2023-01-31T08:37:46;96188.13;;;7.93;66.81
6615;BME280;3343;42.896;23.912;2023-01-31T08:40:13;96190.13;;;7.68;68.20
6615;BME280;3343;42.896;23.912;2023-01-31T08:42:40;96193.00;;;7.82;67.97
6615;BME280;3343;42.896;23.912;2023-01-31T08:45:07;96191.41;;;7.73;68.91
6615;BME280;3343;42.896;23.912;2023-01-31T08:47:47;96197.44;;;8.11;67.38
6615;BME280;3343;42.896;23.912;2023-01-31T08:50:14;96198.44;;;8.10;66.67
6615;BME280;3343;42.896;23.912;2023-01-31T08:52:42;96203.59;;;8.47;65.63
6615;BME280;3343;42.896;23.912;2023-01-31T08:55:09;96197.03;;;8.37;65.30
6615;BME280;3343;42.896;23.912;2023-01-31T08:57:38;96201.06;;;8.24;67.29
6615;BME280;3343;42.896;23.912;2023-01-31T09:00:07;96199.78;;;8.79;66.26
6615;BME280;3343;42.896;23.912;2023-01-31T09:02:34;96176.97;;;9.16;65.55
6615;BME280;3343;42.896;23.912;2023-01-31T09:05:00;96198.28;;;10.61;59.50
6615;BME280;3343;42.896;23.912;2023-01-31T09:07:27;96190.84;;;11.52;54.48
6615;BME280;3343;42.896;23.912;2023-01-31T09:09:55;96202.84;;;11.87;50.03
6615;BME280;3343;42.896;23.912;2023-01-31T09:12:22;96197.34;;;11.62;48.64
6615;BME280;3343;42.896;23.912;2023-01-31T09:14:49;96199.16;;;11.42;47.79
6615;BME280;3343;42.896;23.912;2023-01-31T09:17:16;96195.78;;;10.94;47.71
6615;BME280;3343;42.896;23.912;2023-01-31T09:19:43;96200.22;;;10.17;50.55
6615;BME280;3343;42.896;23.912;2023-01-31T09:22:10;96201.75;;;10.05;52.24
6615;BME280;3343;42.896;23.912;2023-01-31T09:24:37;96196.59;;;10.18;51.94
6615;BME280;3343;42.896;23.912;2023-01-31T09:27:05;96203.47;;;10.47;51.91
6615;BME280;3343;42.896;23.912;2023-01-31T09:29:32;96193.09;;;10.39;50.49
6615;BME280;3343;42.896;23.912;2023-01-31T09:32:19;96198.53;;;10.38;49.38
6615;BME280;3343;42.896;23.912;2023-01-31T09:35:14;96192.41;;;9.96;49.94
6615;BME280;3343;42.896;23.912;2023-01-31T09:37:54;96188.59;;;10.33;51.49
6615;BME280;3343;42.896;23.912;2023-01-31T09:40:42;96188.38;;;10.28;51.69
6615;BME280;3343;42.896;23.912;2023-01-31T09:43:47;96190.63;;;10.31;50.80
6615;BME280;3343;42.896;23.912;2023-01-31T09:46:40;96191.66;;;10.37;51.10
6615;BME280;3343;42.896;23.912;2023-01-31T09:49:35;96198.41;;;9.90;52.26
6615;BME280;3343;42.896;23.912;2023-01-31T09:52:39;96200.16;;;9.34;53.14
6615;BME280;3343;42.896;23.912;2023-01-31T09:55:35;96193.13;;;8.98;55.27
6615;BME280;3343;42.896;23.912;2023-01-31T09:58:08;96188.56;;;8.85;57.33
6615;BME280;3343;42.896;23.912;2023-01-31T10:00:46;96189.81;;;8.89;57.49
6615;BME280;3343;42.896;23.912;2023-01-31T10:03:40;96195.44;;;8.86;59.94
6615;BME280;3343;42.896;23.912;2023-01-31T10:06:27;96180.34;;;8.74;62.03
6615;BME280;3343;42.896;23.912;2023-01-31T10:08:58;96181.38;;;8.43;64.16
6615;BME280;3343;42.896;23.912;2023-01-31T10:11:33;96188.88;;;8.46;64.24
6615;BME280;3343;42.896;23.912;2023-01-31T10:14:12;96179.28;;;8.53;63.79
6615;BME280;3343;42.896;23.912;2023-01-31T10:16:54;96168.44;;;8.42;62.62
6615;BME280;3343;42.896;23.912;2023-01-31T10:19:25;96165.84;;;7.75;59.55
6615;BME280;3343;42.896;23.912;2023-01-31T10:21:57;96170.41;;;7.95;63.36
6615;BME280;3343;42.896;23.912;2023-01-31T10:24:30;96180.81;;;8.18;63.94
6615;BME280;3343;42.896;23.912;2023-01-31T10:27:02;96166.97;;;8.24;61.98
6615;BME280;3343;42.896;23.912;2023-01-31T10:29:35;96170.63;;;8.38;61.97
6615;BME280;3343;42.896;23.912;2023-01-31T10:32:37;96176.94;;;8.44;59.49
6615;BME280;3343;42.896;23.912;2023-01-31T10:35:21;96172.13;;;8.32;60.36
6615;BME280;3343;42.896;23.912;2023-01-31T10:37:51;96170.97;;;8.35;61.52
6615;BME280;3343;42.896;23.912;2023-01-31T10:40:23;96166.72;;;8.34;60.75
6615;BME280;3343;42.896;23.912;2023-01-31T10:45:54;96168.97;;;7.93;62.66
6615;BME280;3343;42.896;23.912;2023-01-31T10:48:42;96160.66;;;7.89;61.36
6615;BME280;3343;42.896;23.912;2023-01-31T10:57:47;96173.31;;;7.86;62.11
6615;BME280;3343;42.896;23.912;2023-01-31T11:00:36;96167.97;;;7.94;61.04
6615;BME280;3343;42.896;23.912;2023-01-31T11:03:10;96160.94;;;7.94;64.38
6615;BME280;3343;42.896;23.912;2023-01-31T11:05:44;96169.53;;;8.03;63.95
6615;BME280;3343;42.896;23.912;2023-01-31T11:08:21;96164.72;;;7.92;67.18
6615;BME280;3343;42.896;23.912;2023-01-31T11:10:53;96167.47;;;7.76;68.49
6615;BME280;3343;42.896;23.912;2023-01-31T11:13:20;96158.72;;;7.68;69.54
6615;BME280;3343;42.896;23.912;2023-01-31T11:15:47;96160.56;;;7.83;67.74
6615;BME280;3343;42.896;23.912;2023-01-31T11:18:25;96159.13;;;8.10;67.86
6615;BME280;3343;42.896;23.912;2023-01-31T11:21:06;96161.56;;;8.11;67.52
6615;BME280;3343;42.896;23.912;2023-01-31T11:23:45;96153.25;;;8.22;68.27
6615;BME280;3343;42.896;23.912;2023-01-31T11:26:37;96161.91;;;8.23;68.31
6615;BME280;3343;42.896;23.912;2023-01-31T11:29:16;96155.50;;;8.25;69.38
6615;BME280;3343;42.896;23.912;2023-01-31T11:31:46;96157.50;;;8.23;71.08
6615;BME280;3343;42.896;23.912;2023-01-31T11:34:21;96155.97;;;8.44;68.76
6615;BME280;3343;42.896;23.912;2023-01-31T11:36:49;96159.59;;;8.43;69.24
6615;BME280;3343;42.896;23.912;2023-01-31T11:39:41;96162.00;;;8.59;68.17
6615;BME280;3343;42.896;23.912;2023-01-31T11:42:12;96171.22;;;8.55;67.34
6615;BME280;3343;42.896;23.912;2023-01-31T11:44:55;96158.59;;;8.44;66.47
6615;BME280;3343;42.896;23.912;2023-01-31T11:47:27;96157.47;;;8.53;65.78
6615;BME280;3343;42.896;23.912;2023-01-31T11:49:56;96159.13;;;8.24;67.24
6615;BME280;3343;42.896;23.912;2023-01-31T11:52:29;96152.97;;;8.17;67.88
6615;BME280;3343;42.896;23.912;2023-01-31T11:54:59;96162.56;;;8.10;69.39
6615;BME280;3343;42.896;23.912;2023-01-31T11:57:31;96161.03;;;8.16;69.81
6615;BME280;3343;42.896;23.912;2023-01-31T12:00:01;96158.75;;;7.98;71.86
6615;BME280;3343;42.896;23.912;2023-01-31T12:02:34;96157.84;;;7.91;71.89
6615;BME280;3343;42.896;23.912;2023-01-31T12:05:08;96154.16;;;7.48;72.42
6615;BME280;3343;42.896;23.912;2023-01-31T12:07:45;96159.72;;;7.30;68.94
6615;BME280;3343;42.896;23.912;2023-01-31T12:10:31;96156.81;;;7.25;66.31
6615;BME280;3343;42.896;23.912;2023-01-31T12:13:13;96153.97;;;7.49;65.87
6615;BME280;3343;42.896;23.912;2023-01-31T12:15:45;96164.44;;;7.49;64.33
6615;BME280;3343;42.896;23.912;2023-01-31T12:18:20;96159.69;;;7.67;63.06
6615;BME280;3343;42.896;23.912;2023-01-31T12:20:56;96156.44;;;7.65;64.15
6615;BME280;3343;42.896;23.912;2023-01-31T12:23:34;96139.00;;;7.43;65.40
6615;BME280;3343;42.896;23.912;2023-01-31T12:26:10;96162.03;;;7.62;67.16
6615;BME280;3343;42.896;23.912;2023-01-31T12:28:52;96156.91;;;7.31;67.71
6615;BME280;3343;42.896;23.912;2023-01-31T12:31:38;96161.19;;;7.85;67.63
6615;BME280;3343;42.896;23.912;2023-01-31T12:34:24;96166.44;;;7.99;68.16
6615;BME280;3343;42.896;23.912;2023-01-31T12:37:17;96147.09;;;8.15;68.10
6615;BME280;3343;42.896;23.912;2023-01-31T12:40:02;96159.75;;;8.12;67.46
6615;BME280;3343;42.896;23.912;2023-01-31T12:42:49;96163.72;;;7.93;65.72
6615;BME280;3343;42.896;23.912;2023-01-31T12:46:00;96155.41;;;7.89;65.46
6615;BME280;3343;42.896;23.912;2023-01-31T12:49:02;96166.97;;;7.80;62.75
6615;BME280;3343;42.896;23.912;2023-01-31T12:52:13;96166.09;;;7.50;63.28
6615;BME280;3343;42.896;23.912;2023-01-31T12:55:22;96164.34;;;7.43;65.56
6615;BME280;3343;42.896;23.912;2023-01-31T12:57:58;96160.28;;;7.40;66.06
6615;BME280;3343;42.896;23.912;2023-01-31T13:00:36;96161.72;;;7.43;64.35
6615;BME280;3343;42.896;23.912;2023-01-31T13:03:30;96169.19;;;7.68;64.36
6615;BME280;3343;42.896;23.912;2023-01-31T13:10:02;96171.16;;;8.34;62.74
6615;BME280;3343;42.896;23.912;2023-01-31T13:13:16;96174.03;;;8.24;62.45
6615;BME280;3343;42.896;23.912;2023-01-31T13:16:27;96168.59;;;8.25;62.17
6615;BME280;3343;42.896;23.912;2023-01-31T13:19:17;96171.97;;;8.19;63.97
6615;BME280;3343;42.896;23.912;2023-01-31T13:25:17;96180.09;;;7.95;65.59
6615;BME280;3343;42.896;23.912;2023-01-31T13:27:52;96185.31;;;7.95;66.47
6615;BME280;3343;42.896;23.912;2023-01-31T13:33:46;96181.72;;;7.58;67.57
6615;BME280;3343;42.896;23.912;2023-01-31T13:36:20;96199.34;;;7.64;68.69
6615;BME280;3343;42.896;23.912;2023-01-31T13:38:49;96194.19;;;7.33;69.65
6615;BME280;3343;42.896;23.912;2023-01-31T13:41:39;96196.72;;;7.64;69.85
6615;BME280;3343;42.896;23.912;2023-01-31T13:44:13;96193.19;;;7.57;68.63
6615;BME280;3343;42.896;23.912;2023-01-31T13:50:05;96201.41;;;7.31;66.92
6615;BME280;3343;42.896;23.912;2023-01-31T13:52:43;96211.22;;;7.52;67.49
6615;BME280;3343;42.896;23.912;2023-01-31T13:55:17;96207.88;;;7.21;66.30
6615;BME280;3343;42.896;23.912;2023-01-31T14:01:27;96208.31;;;7.47;64.99
6615;BME280;3343;42.896;23.912;2023-01-31T14:04:31;96216.72;;;7.43;65.50
6615;BME280;3343;42.896;23.912;2023-01-31T14:07:22;96216.13;;;7.55;66.44
6615;BME280;3343;42.896;23.912;2023-01-31T14:10:24;96217.56;;;7.58;66.57
6615;BME280;3343;42.896;23.912;2023-01-31T14:13:23;96220.00;;;7.59;66.28
6615;BME280;3343;42.896;23.912;2023-01-31T14:15:52;96229.28;;;7.24;67.03
6615;BME280;3343;42.896;23.912;2023-01-31T14:21:49;96228.34;;;7.40;65.31
6615;BME280;3343;42.896;23.912;2023-01-31T14:25:03;96233.53;;;7.48;65.42
6615;BME280;3343;42.896;23.912;2023-01-31T14:28:00;96217.16;;;7.46;62.38
6615;BME280;3343;42.896;23.912;2023-01-31T14:30:44;96238.00;;;7.40;63.32
6615;BME280;3343;42.896;23.912;2023-01-31T14:33:22;96239.63;;;7.63;63.54